createdAt,value
2022-11-14T08:04:14.280Z,106.57
2022-11-14T08:07:16.890Z,108.85
2022-11-14T08:25:46.035Z,111.47
2022-11-14T08:28:48.546Z,108.47
2022-11-14T08:46:59.757Z,95.10
2022-11-14T09:01:02.847Z,94.35
2022-11-14T09:04:05.830Z,82.47
2022-11-14T09:07:08.821Z,93.93
2022-11-14T09:10:11.354Z,98.78
2022-11-14T09:18:44.755Z,86.35
2022-11-14T09:21:47.367Z,79.35
2022-11-14T09:24:49.981Z,74.68
2022-11-14T09:33:12.073Z,71.57
2022-11-14T09:36:15.886Z,76.05
2022-11-14T09:47:42.417Z,65.75
2022-11-14T09:50:49.381Z,68.50
2022-11-14T09:53:58.261Z,73.38
2022-11-14T10:02:55.686Z,71.80
2022-11-14T10:06:18.821Z,79.30
2022-11-14T10:09:39.595Z,77.90
2022-11-14T10:12:59.140Z,76.63
2022-11-14T10:16:08.249Z,72.65
2022-11-14T10:19:24.076Z,67.85
2022-11-14T10:22:45.254Z,59.53
2022-11-14T10:25:56.197Z,64.83
2022-11-14T10:29:20.470Z,64.17
2022-11-14T10:32:35.496Z,61.80
2022-11-14T10:35:43.426Z,68.45
2022-11-14T10:38:53.344Z,59.15
2022-11-14T10:42:07.405Z,66.38
2022-11-14T10:45:19.379Z,66.43
2022-11-14T10:48:31.431Z,68.50
2022-11-14T10:51:40.399Z,60.80
2022-11-14T10:54:46.842Z,63.88
2022-11-14T10:57:49.454Z,61.45
2022-11-14T11:00:51.934Z,60.35
2022-11-14T11:03:54.503Z,68.00
2022-11-14T11:07:34.535Z,67.68
2022-11-14T11:11:03.702Z,59.42
2022-11-14T11:14:06.233Z,64.47
2022-11-14T11:17:18.418Z,61.58
2022-11-14T11:20:39.536Z,56.47
2022-11-14T11:23:51.573Z,58.57
2022-11-14T11:27:14.403Z,54.25
2022-11-14T11:30:21.049Z,56.35
2022-11-14T11:33:25.674Z,55.97
2022-11-14T11:36:29.877Z,64.10
2022-11-14T11:39:41.166Z,63.22
2022-11-14T11:46:18.202Z,52.10
2022-11-14T11:49:33.426Z,59.00
2022-11-14T11:52:45.287Z,58.20
2022-11-14T11:55:52.314Z,52.80
2022-11-14T11:58:58.227Z,53.45
2022-11-14T12:02:01.538Z,60.60
2022-11-14T12:05:04.346Z,55.47
2022-11-14T12:08:15.943Z,49.33
2022-11-14T12:11:26.851Z,48.60
2022-11-14T12:14:53.744Z,50.75
2022-11-14T12:18:46.540Z,56.65
2022-11-14T12:22:12.868Z,50.20
2022-11-14T12:25:35.342Z,49.67
2022-11-14T12:28:59.463Z,49.10
2022-11-14T12:32:06.891Z,48.20
2022-11-14T12:35:19.120Z,50.72
2022-11-14T12:38:23.333Z,45.70
2022-11-14T12:41:29.171Z,45.40
2022-11-14T12:44:40.458Z,52.80
2022-11-14T12:48:23.020Z,44.55
2022-11-14T12:51:50.235Z,49.35
2022-11-14T12:54:52.692Z,42.88
2022-11-14T12:58:07.082Z,49.13
2022-11-14T13:01:46.271Z,47.65
2022-11-14T13:05:12.610Z,46.70
2022-11-14T13:08:34.267Z,46.08
2022-11-14T13:11:58.296Z,44.28
2022-11-14T13:15:48.592Z,44.63
2022-11-14T13:19:12.790Z,45.13
2022-11-14T13:22:36.118Z,46.13
2022-11-14T13:25:38.659Z,44.25
2022-11-14T13:28:46.278Z,47.60
2022-11-14T13:31:51.430Z,44.25
2022-11-14T13:35:02.803Z,42.78
2022-11-14T13:38:24.894Z,48.33
2022-11-14T13:41:56.537Z,45.28
2022-11-14T13:45:43.111Z,45.45
2022-11-14T13:49:03.677Z,47.50
2022-11-14T13:52:07.466Z,43.60
2022-11-14T13:55:20.714Z,41.80
2022-11-14T13:58:35.701Z,43.75
2022-11-14T14:01:48.236Z,46.90
2022-11-14T14:05:03.752Z,45.30
2022-11-14T14:08:20.618Z,50.05
2022-11-14T14:11:42.687Z,44.83
2022-11-14T14:15:03.441Z,43.63
2022-11-14T14:18:15.906Z,43.03
2022-11-14T14:21:32.467Z,45.22
2022-11-14T14:24:48.675Z,44.45
2022-11-14T14:28:00.942Z,49.17
2022-11-14T14:31:09.399Z,52.17
2022-11-14T14:34:23.624Z,49.40
2022-11-14T14:37:27.969Z,44.83
2022-11-14T14:40:34.367Z,50.42
2022-11-14T14:43:36.872Z,54.60
2022-11-14T14:46:39.429Z,54.92
2022-11-14T14:49:42.254Z,49.90
2022-11-14T14:52:44.823Z,52.42
2022-11-14T14:55:55.401Z,49.50
2022-11-14T14:58:57.852Z,54.35
2022-11-14T15:02:00.333Z,52.28
2022-11-14T15:05:03.935Z,55.65
2022-11-14T15:08:06.838Z,46.60
2022-11-14T15:11:10.711Z,52.00
2022-11-14T15:14:15.995Z,51.00
2022-11-14T15:17:18.573Z,51.60
2022-11-14T15:20:26.026Z,55.55
2022-11-14T15:23:28.482Z,52.95
2022-11-14T15:26:32.559Z,54.30
2022-11-14T15:29:35.053Z,55.55
2022-11-14T15:32:37.505Z,49.97
2022-11-14T15:35:41.048Z,64.05
2022-11-14T15:38:59.912Z,54.20
2022-11-14T15:42:14.947Z,56.45
2022-11-14T15:45:24.738Z,54.45
2022-11-14T15:48:27.356Z,55.78
2022-11-14T15:51:42.361Z,56.88
2022-11-14T15:54:44.902Z,58.38
2022-11-14T15:58:00.957Z,49.75
2022-11-14T16:01:16.806Z,49.95
2022-11-14T16:04:20.932Z,47.92
2022-11-14T16:07:23.577Z,52.17
2022-11-14T16:10:27.817Z,53.65
2022-11-14T16:13:31.948Z,63.33
2022-11-14T16:16:34.743Z,58.85
2022-11-14T16:19:37.179Z,59.08
2022-11-14T16:22:39.630Z,57.47
2022-11-14T16:25:42.281Z,58.70
2022-11-14T16:28:46.085Z,53.60
2022-11-14T16:31:48.631Z,53.20
2022-11-14T16:34:51.074Z,59.53
2022-11-14T16:37:56.008Z,55.72
2022-11-14T16:41:00.170Z,55.80
2022-11-14T16:44:04.028Z,60.72
2022-11-14T16:47:06.554Z,58.58
2022-11-14T16:50:09.893Z,60.55
2022-11-14T16:53:12.406Z,63.28
